sensor_id;sensor_type;location;lat;lon;timestamp;P1;durP1;ratioP1;P2;durP2;ratioP2
10230;SDS011;62604;49.432;8.680;2023-02-23T15:33:09;11.15;;;7.50;;
10230;SDS011;62604;49.432;8.680;2023-02-23T15:35:44;8.27;;;6.20;;
10230;SDS011;62604;49.432;8.680;2023-02-23T15:38:15;8.63;;;6.83;;
10230;SDS011;62604;49.432;8.680;2023-02-23T16:20:05;7.43;;;5.37;;
10230;SDS011;62604;49.432;8.680;2023-02-23T16:22:40;6.13;;;5.63;;
10230;SDS011;62604;49.432;8.680;2023-02-23T16:25:10;6.07;;;5.47;;
10230;SDS011;62604;49.432;8.680;2023-02-23T16:27:39;5.40;;;4.90;;
10230;SDS011;62604;49.432;8.680;2023-02-23T16:30:19;7.53;;;5.37;;
10230;SDS011;62604;49.432;8.680;2023-02-23T16:33:01;8.17;;;5.63;;
10230;SDS011;62604;49.432;8.680;2023-02-23T17:12:07;7.63;;;6.53;;
10230;SDS011;62604;49.432;8.680;2023-02-23T17:14:43;6.33;;;5.73;;
10230;SDS011;62604;49.432;8.680;2023-02-23T17:17:17;5.80;;;5.30;;
10230;SDS011;62604;49.432;8.680;2023-02-23T17:19:47;6.33;;;5.73;;
10230;SDS011;62604;49.432;8.680;2023-02-23T17:22:17;10.70;;;7.50;;
10230;SDS011;62604;49.432;8.680;2023-02-23T17:24:44;9.43;;;7.43;;
10230;SDS011;62604;49.432;8.680;2023-02-23T17:27:19;7.93;;;6.80;;
10230;SDS011;62604;49.432;8.680;2023-02-23T17:30:00;5.93;;;5.43;;
10230;SDS011;62604;49.432;8.680;2023-02-23T17:32:41;7.10;;;6.50;;
10230;SDS011;62604;49.432;8.680;2023-02-23T17:35:23;5.93;;;5.33;;
10230;SDS011;62604;49.432;8.680;2023-02-23T17:37:52;7.47;;;6.07;;
10230;SDS011;62604;49.432;8.680;2023-02-23T17:40:22;6.13;;;5.50;;
10230;SDS011;62604;49.432;8.680;2023-02-23T17:42:56;5.80;;;5.30;;
10230;SDS011;62604;49.432;8.680;2023-02-23T17:45:25;7.57;;;5.20;;
10230;SDS011;62604;49.432;8.680;2023-02-23T17:47:54;6.57;;;5.30;;
10230;SDS011;62604;49.432;8.680;2023-02-23T17:50:23;6.10;;;5.60;;
10230;SDS011;62604;49.432;8.680;2023-02-23T17:52:52;6.70;;;5.30;;
10230;SDS011;62604;49.432;8.680;2023-02-23T17:55:20;7.27;;;5.37;;
10230;SDS011;62604;49.432;8.680;2023-02-23T17:57:50;6.60;;;5.30;;
10230;SDS011;62604;49.432;8.680;2023-02-23T18:00:19;6.23;;;5.67;;
10230;SDS011;62604;49.432;8.680;2023-02-23T18:02:48;6.00;;;5.40;;
10230;SDS011;62604;49.432;8.680;2023-02-23T18:05:15;7.40;;;5.27;;
10230;SDS011;62604;49.432;8.680;2023-02-23T18:07:43;6.67;;;5.73;;
10230;SDS011;62604;49.432;8.680;2023-02-23T18:10:11;6.30;;;5.67;;
10230;SDS011;62604;49.432;8.680;2023-02-23T18:12:46;7.03;;;6.13;;
10230;SDS011;62604;49.432;8.680;2023-02-23T18:15:53;6.23;;;5.63;;
10230;SDS011;62604;49.432;8.680;2023-02-23T18:18:33;5.57;;;3.73;;
10230;SDS011;62604;49.432;8.680;2023-02-23T18:21:14;4.43;;;3.40;;
10230;SDS011;62604;49.432;8.680;2023-02-23T18:24:03;5.90;;;5.33;;
10230;SDS011;62604;49.432;8.680;2023-02-23T18:26:36;8.00;;;6.27;;
10230;SDS011;62604;49.432;8.680;2023-02-23T18:29:19;9.70;;;7.13;;
10230;SDS011;62604;49.432;8.680;2023-02-23T18:31:51;8.47;;;6.63;;
10230;SDS011;62604;49.432;8.680;2023-02-23T18:34:27;5.77;;;3.97;;
10230;SDS011;62604;49.432;8.680;2023-02-23T18:37:07;6.07;;;4.23;;
10230;SDS011;62604;49.432;8.680;2023-02-23T18:39:49;8.10;;;5.67;;
10230;SDS011;62604;49.432;8.680;2023-02-23T18:42:34;7.80;;;4.40;;
10230;SDS011;62604;49.432;8.680;2023-02-23T18:48:12;8.27;;;6.00;;
10230;SDS011;62604;49.432;8.680;2023-02-23T18:50:49;11.03;;;6.60;;
10230;SDS011;62604;49.432;8.680;2023-02-23T18:53:32;7.20;;;6.50;;
10230;SDS011;62604;49.432;8.680;2023-02-23T18:56:20;12.27;;;6.83;;
10230;SDS011;62604;49.432;8.680;2023-02-23T18:59:00;6.90;;;6.17;;
10230;SDS011;62604;49.432;8.680;2023-02-23T19:01:53;6.47;;;5.30;;
10230;SDS011;62604;49.432;8.680;2023-02-23T19:10:10;6.10;;;5.20;;
10230;SDS011;62604;49.432;8.680;2023-02-23T19:12:47;6.20;;;5.47;;
10230;SDS011;62604;49.432;8.680;2023-02-23T19:15:28;7.47;;;5.83;;
10230;SDS011;62604;49.432;8.680;2023-02-23T19:18:01;5.67;;;5.07;;
10230;SDS011;62604;49.432;8.680;2023-02-23T19:23:31;6.10;;;5.50;;
10230;SDS011;62604;49.432;8.680;2023-02-23T19:26:07;8.60;;;5.87;;
10230;SDS011;62604;49.432;8.680;2023-02-23T19:28:37;6.07;;;5.47;;
10230;SDS011;62604;49.432;8.680;2023-02-23T19:31:11;8.63;;;5.90;;
10230;SDS011;62604;49.432;8.680;2023-02-23T19:33:53;6.10;;;5.50;;
10230;SDS011;62604;49.432;8.680;2023-02-23T19:36:22;7.60;;;5.93;;
10230;SDS011;62604;49.432;8.680;2023-02-23T19:38:56;6.03;;;5.43;;
10230;SDS011;62604;49.432;8.680;2023-02-23T19:41:38;6.90;;;6.10;;
10230;SDS011;62604;49.432;8.680;2023-02-23T19:44:14;6.73;;;5.10;;
10230;SDS011;62604;49.432;8.680;2023-02-23T19:46:54;6.60;;;4.90;;
10230;SDS011;62604;49.432;8.680;2023-02-23T19:49:27;5.87;;;5.23;;
10230;SDS011;62604;49.432;8.680;2023-02-23T19:51:55;8.73;;;5.83;;
10230;SDS011;62604;49.432;8.680;2023-02-23T19:54:26;6.97;;;5.67;;
10230;SDS011;62604;49.432;8.680;2023-02-23T19:57:18;8.03;;;6.03;;
10230;SDS011;62604;49.432;8.680;2023-02-23T19:59:56;7.20;;;5.77;;
10230;SDS011;62604;49.432;8.680;2023-02-23T20:02:30;7.20;;;6.50;;
10230;SDS011;62604;49.432;8.680;2023-02-23T20:05:12;11.50;;;7.07;;
10230;SDS011;62604;49.432;8.680;2023-02-23T20:08:01;8.10;;;6.50;;
10230;SDS011;62604;49.432;8.680;2023-02-23T20:10:39;8.20;;;6.67;;
10230;SDS011;62604;49.432;8.680;2023-02-23T20:13:10;8.33;;;6.27;;
10230;SDS011;62604;49.432;8.680;2023-02-23T20:15:41;7.17;;;6.40;;
10230;SDS011;62604;49.432;8.680;2023-02-23T20:18:32;8.20;;;6.43;;
10230;SDS011;62604;49.432;8.680;2023-02-23T20:21:09;9.43;;;7.43;;
10230;SDS011;62604;49.432;8.680;2023-02-23T20:23:48;7.17;;;6.47;;
10230;SDS011;62604;49.432;8.680;2023-02-23T20:26:23;7.50;;;6.63;;
10230;SDS011;62604;49.432;8.680;2023-02-23T20:29:08;8.60;;;6.80;;
10230;SDS011;62604;49.432;8.680;2023-02-23T20:31:45;7.90;;;6.33;;
10230;SDS011;62604;49.432;8.680;2023-02-23T20:34:16;9.13;;;7.47;;
10230;SDS011;62604;49.432;8.680;2023-02-23T20:36:58;9.73;;;7.40;;
10230;SDS011;62604;49.432;8.680;2023-02-23T20:39:50;8.67;;;7.00;;
10230;SDS011;62604;49.432;8.680;2023-02-23T20:42:37;12.27;;;7.37;;
10230;SDS011;62604;49.432;8.680;2023-02-23T20:45:26;8.60;;;7.20;;
10230;SDS011;62604;49.432;8.680;2023-02-23T20:48:12;9.83;;;7.90;;
10230;SDS011;62604;49.432;8.680;2023-02-23T20:50:52;8.43;;;7.13;;
10230;SDS011;62604;49.432;8.680;2023-02-23T20:53:45;11.43;;;7.53;;
10230;SDS011;62604;49.432;8.680;2023-02-23T20:56:47;13.93;;;7.00;;
10230;SDS011;62604;49.432;8.680;2023-02-23T20:59:23;11.30;;;6.77;;
10230;SDS011;62604;49.432;8.680;2023-02-23T21:02:14;12.00;;;6.80;;
10230;SDS011;62604;49.432;8.680;2023-02-23T21:04:58;14.43;;;8.97;;
10230;SDS011;62604;49.432;8.680;2023-02-23T21:07:45;14.87;;;10.27;;
10230;SDS011;62604;49.432;8.680;2023-02-23T21:10:24;14.50;;;9.43;;
10230;SDS011;62604;49.432;8.680;2023-02-23T21:13:00;15.53;;;9.37;;
10230;SDS011;62604;49.432;8.680;2023-02-23T21:15:43;12.53;;;8.03;;
10230;SDS011;62604;49.432;8.680;2023-02-23T21:18:31;10.17;;;7.97;;
10230;SDS011;62604;49.432;8.680;2023-02-23T21:20:59;10.23;;;7.67;;
10230;SDS011;62604;49.432;8.680;2023-02-23T21:23:41;7.17;;;6.47;;
10230;SDS011;62604;49.432;8.680;2023-02-23T21:26:43;8.13;;;6.27;;
10230;SDS011;62604;49.432;8.680;2023-02-23T21:29:12;7.73;;;6.50;;
10230;SDS011;62604;49.432;8.680;2023-02-23T21:31:40;7.60;;;6.30;;
10230;SDS011;62604;49.432;8.680;2023-02-23T21:34:09;11.20;;;7.70;;
10230;SDS011;62604;49.432;8.680;2023-02-23T21:36:36;12.97;;;8.90;;
10230;SDS011;62604;49.432;8.680;2023-02-23T21:39:04;10.83;;;8.20;;
10230;SDS011;62604;49.432;8.680;2023-02-23T21:41:31;11.17;;;8.87;;
10230;SDS011;62604;49.432;8.680;2023-02-23T21:43:58;12.93;;;9.03;;
10230;SDS011;62604;49.432;8.680;2023-02-23T21:46:26;14.90;;;9.30;;
10230;SDS011;62604;49.432;8.680;2023-02-23T21:48:54;16.73;;;9.63;;
10230;SDS011;62604;49.432;8.680;2023-02-23T21:51:25;16.40;;;9.30;;
10230;SDS011;62604;49.432;8.680;2023-02-23T21:53:54;11.27;;;8.10;;
10230;SDS011;62604;49.432;8.680;2023-02-23T21:56:26;17.50;;;9.20;;
10230;SDS011;62604;49.432;8.680;2023-02-23T21:59:01;14.23;;;8.87;;
10230;SDS011;62604;49.432;8.680;2023-02-23T22:01:31;15.10;;;9.67;;
10230;SDS011;62604;49.432;8.680;2023-02-23T22:04:01;14.37;;;8.90;;
10230;SDS011;62604;49.432;8.680;2023-02-23T22:06:34;14.27;;;9.67;;
10230;SDS011;62604;49.432;8.680;2023-02-23T22:09:04;11.97;;;9.03;;
10230;SDS011;62604;49.432;8.680;2023-02-23T22:11:36;13.37;;;9.87;;
10230;SDS011;62604;49.432;8.680;2023-02-23T22:14:06;14.83;;;9.17;;
10230;SDS011;62604;49.432;8.680;2023-02-23T22:16:35;13.97;;;9.63;;
10230;SDS011;62604;49.432;8.680;2023-02-23T22:19:03;16.27;;;10.87;;
10230;SDS011;62604;49.432;8.680;2023-02-23T22:21:34;17.07;;;10.00;;
10230;SDS011;62604;49.432;8.680;2023-02-23T22:24:02;13.07;;;11.10;;
10230;SDS011;62604;49.432;8.680;2023-02-23T22:26:35;15.20;;;10.43;;
10230;SDS011;62604;49.432;8.680;2023-02-23T22:29:06;13.53;;;9.83;;
10230;SDS011;62604;49.432;8.680;2023-02-23T22:31:34;14.17;;;10.10;;
10230;SDS011;62604;49.432;8.680;2023-02-23T22:34:02;16.43;;;11.17;;
10230;SDS011;62604;49.432;8.680;2023-02-23T22:36:31;18.57;;;11.37;;
10230;SDS011;62604;49.432;8.680;2023-02-23T22:39:03;19.63;;;11.63;;
10230;SDS011;62604;49.432;8.680;2023-02-23T22:41:35;17.80;;;10.80;;
10230;SDS011;62604;49.432;8.680;2023-02-23T22:44:08;16.10;;;10.53;;
10230;SDS011;62604;49.432;8.680;2023-02-23T22:46:41;17.53;;;10.93;;
10230;SDS011;62604;49.432;8.680;2023-02-23T22:49:09;15.20;;;10.63;;
10230;SDS011;62604;49.432;8.680;2023-02-23T22:51:40;16.10;;;10.47;;
10230;SDS011;62604;49.432;8.680;2023-02-23T22:54:09;14.30;;;10.63;;
10230;SDS011;62604;49.432;8.680;2023-02-23T22:56:38;15.80;;;10.40;;
10230;SDS011;62604;49.432;8.680;2023-02-23T22:59:06;15.77;;;10.60;;
10230;SDS011;62604;49.432;8.680;2023-02-23T23:01:35;17.57;;;10.70;;
10230;SDS011;62604;49.432;8.680;2023-02-23T23:04:03;16.13;;;10.27;;
10230;SDS011;62604;49.432;8.680;2023-02-23T23:06:34;19.27;;;11.33;;
10230;SDS011;62604;49.432;8.680;2023-02-23T23:09:03;20.37;;;10.13;;
10230;SDS011;62604;49.432;8.680;2023-02-23T23:11:32;16.63;;;10.77;;
10230;SDS011;62604;49.432;8.680;2023-02-23T23:14:00;16.60;;;10.30;;
10230;SDS011;62604;49.432;8.680;2023-02-23T23:16:32;18.37;;;11.40;;
10230;SDS011;62604;49.432;8.680;2023-02-23T23:19:01;15.97;;;10.60;;
10230;SDS011;62604;49.432;8.680;2023-02-23T23:21:31;15.63;;;11.43;;
10230;SDS011;62604;49.432;8.680;2023-02-23T23:24:01;16.60;;;11.27;;
10230;SDS011;62604;49.432;8.680;2023-02-23T23:26:31;19.00;;;11.60;;
10230;SDS011;62604;49.432;8.680;2023-02-23T23:28:59;18.60;;;12.00;;
10230;SDS011;62604;49.432;8.680;2023-02-23T23:31:31;17.73;;;11.97;;
10230;SDS011;62604;49.432;8.680;2023-02-23T23:34:00;15.93;;;11.03;;
10230;SDS011;62604;49.432;8.680;2023-02-23T23:36:29;18.13;;;11.83;;
10230;SDS011;62604;49.432;8.680;2023-02-23T23:38:59;16.90;;;11.03;;
10230;SDS011;62604;49.432;8.680;2023-02-23T23:41:30;18.87;;;10.80;;
10230;SDS011;62604;49.432;8.680;2023-02-23T23:43:59;23.80;;;11.37;;
10230;SDS011;62604;49.432;8.680;2023-02-23T23:46:30;19.07;;;11.47;;
10230;SDS011;62604;49.432;8.680;2023-02-23T23:49:01;15.17;;;11.57;;
10230;SDS011;62604;49.432;8.680;2023-02-23T23:51:32;19.80;;;11.67;;
10230;SDS011;62604;49.432;8.680;2023-02-23T23:54:03;20.83;;;11.43;;
10230;SDS011;62604;49.432;8.680;2023-02-23T23:56:33;22.00;;;11.50;;
10230;SDS011;62604;49.432;8.680;2023-02-23T23:59:03;21.03;;;12.20;;
